Fredonia, Wisconsin
Current Conditions -  °F | °C
As of 1:15 AM on Sunday 26 Oct 2014 (Local Time) from KETB Reporting Station
Clear Clear  
Wind Chill: 42°   Ceiling: Unl
Heat Index: 45°   Visibility: 10mi
Dew Point: 27°   Wind: 5mph
Humidity: 49%   Direction: 300°WNW
Pressure: 29.97"   Gusts: NA
Location:  43.47°N, 87.95°W
Report Text: KETB 260615Z AUTO 30004KT 10SM CLR 07/M03 A2997 RMK AO2
Loading
Personal Weather Stations






























Interactive Weather Map
Tropical Storm Tracking
New forecast layout! Learn more

10-Day Weather Forecast

Advertisements
Track Severe Weather on mobile